sensor_id;sensor_type;location;lat;lon;timestamp;P1;durP1;ratioP1;P2;durP2;ratioP2
76801;SDS011;66403;50.832;10.950;2023-03-03T00:02:50;39.95;;;16.13;;
76801;SDS011;66403;50.832;10.950;2023-03-03T00:07:50;39.70;;;16.00;;
76801;SDS011;66403;50.832;10.950;2023-03-03T00:12:51;37.22;;;13.93;;
76801;SDS011;66403;50.832;10.950;2023-03-03T00:17:51;29.23;;;14.10;;
76801;SDS011;66403;50.832;10.950;2023-03-03T00:22:52;39.30;;;15.80;;
76801;SDS011;66403;50.832;10.950;2023-03-03T00:27:53;39.30;;;16.38;;
76801;SDS011;66403;50.832;10.950;2023-03-03T00:32:53;38.30;;;16.45;;
76801;SDS011;66403;50.832;10.950;2023-03-03T00:37:56;36.42;;;14.35;;
76801;SDS011;66403;50.832;10.950;2023-03-03T00:42:58;39.03;;;14.05;;
76801;SDS011;66403;50.832;10.950;2023-03-03T00:47:59;36.58;;;15.10;;
76801;SDS011;66403;50.832;10.950;2023-03-03T00:53:11;34.42;;;16.05;;
76801;SDS011;66403;50.832;10.950;2023-03-03T00:58:13;41.20;;;15.07;;
76801;SDS011;66403;50.832;10.950;2023-03-03T01:03:19;34.20;;;13.98;;
76801;SDS011;66403;50.832;10.950;2023-03-03T01:08:21;32.97;;;14.68;;
76801;SDS011;66403;50.832;10.950;2023-03-03T01:13:24;35.53;;;14.13;;
76801;SDS011;66403;50.832;10.950;2023-03-03T01:18:26;39.85;;;14.90;;
76801;SDS011;66403;50.832;10.950;2023-03-03T01:23:27;35.03;;;14.98;;
76801;SDS011;66403;50.832;10.950;2023-03-03T01:28:27;34.53;;;15.00;;
76801;SDS011;66403;50.832;10.950;2023-03-03T01:33:28;39.03;;;16.98;;
76801;SDS011;66403;50.832;10.950;2023-03-03T01:38:28;35.03;;;14.00;;
76801;SDS011;66403;50.832;10.950;2023-03-03T01:43:29;31.23;;;13.10;;
76801;SDS011;66403;50.832;10.950;2023-03-03T01:48:37;38.33;;;14.18;;
76801;SDS011;66403;50.832;10.950;2023-03-03T01:53:44;35.65;;;15.35;;
76801;SDS011;66403;50.832;10.950;2023-03-03T01:58:50;33.45;;;15.43;;
76801;SDS011;66403;50.832;10.950;2023-03-03T02:03:53;35.63;;;15.30;;
76801;SDS011;66403;50.832;10.950;2023-03-03T02:14:17;41.08;;;13.55;;
76801;SDS011;66403;50.832;10.950;2023-03-03T02:19:24;31.40;;;14.05;;
76801;SDS011;66403;50.832;10.950;2023-03-03T02:24:38;30.27;;;13.95;;
76801;SDS011;66403;50.832;10.950;2023-03-03T02:29:42;33.60;;;12.80;;
76801;SDS011;66403;50.832;10.950;2023-03-03T02:34:48;34.20;;;12.43;;
76801;SDS011;66403;50.832;10.950;2023-03-03T02:39:51;30.17;;;12.55;;
76801;SDS011;66403;50.832;10.950;2023-03-03T02:44:52;28.15;;;13.15;;
76801;SDS011;66403;50.832;10.950;2023-03-03T02:49:52;30.25;;;14.10;;
76801;SDS011;66403;50.832;10.950;2023-03-03T02:54:54;30.40;;;12.98;;
76801;SDS011;66403;50.832;10.950;2023-03-03T02:59:54;27.38;;;11.45;;
76801;SDS011;66403;50.832;10.950;2023-03-03T03:04:55;31.38;;;12.45;;
76801;SDS011;66403;50.832;10.950;2023-03-03T03:09:57;30.48;;;13.05;;
76801;SDS011;66403;50.832;10.950;2023-03-03T03:15:00;38.47;;;14.73;;
76801;SDS011;66403;50.832;10.950;2023-03-03T03:20:01;33.13;;;13.32;;
76801;SDS011;66403;50.832;10.950;2023-03-03T03:25:03;34.03;;;13.70;;
76801;SDS011;66403;50.832;10.950;2023-03-03T03:30:05;27.55;;;11.77;;
76801;SDS011;66403;50.832;10.950;2023-03-03T03:35:06;32.75;;;14.00;;
76801;SDS011;66403;50.832;10.950;2023-03-03T03:40:08;31.17;;;13.88;;
76801;SDS011;66403;50.832;10.950;2023-03-03T03:45:09;35.95;;;12.32;;
76801;SDS011;66403;50.832;10.950;2023-03-03T03:50:15;28.75;;;12.48;;
76801;SDS011;66403;50.832;10.950;2023-03-03T03:55:17;36.38;;;13.90;;
76801;SDS011;66403;50.832;10.950;2023-03-03T04:00:21;36.83;;;13.48;;
76801;SDS011;66403;50.832;10.950;2023-03-03T04:05:28;34.10;;;13.57;;
76801;SDS011;66403;50.832;10.950;2023-03-03T04:10:29;35.67;;;13.32;;
76801;SDS011;66403;50.832;10.950;2023-03-03T04:15:30;30.05;;;13.70;;
76801;SDS011;66403;50.832;10.950;2023-03-03T04:20:32;32.88;;;12.52;;
76801;SDS011;66403;50.832;10.950;2023-03-03T04:25:33;30.77;;;12.23;;
76801;SDS011;66403;50.832;10.950;2023-03-03T04:30:33;34.72;;;13.20;;
76801;SDS011;66403;50.832;10.950;2023-03-03T04:35:34;29.73;;;11.60;;
76801;SDS011;66403;50.832;10.950;2023-03-03T04:40:36;25.30;;;11.20;;
76801;SDS011;66403;50.832;10.950;2023-03-03T04:45:39;27.77;;;11.95;;
76801;SDS011;66403;50.832;10.950;2023-03-03T04:50:41;34.13;;;13.00;;
76801;SDS011;66403;50.832;10.950;2023-03-03T04:55:42;32.35;;;12.15;;
76801;SDS011;66403;50.832;10.950;2023-03-03T05:00:43;40.45;;;11.95;;
76801;SDS011;66403;50.832;10.950;2023-03-03T05:05:44;30.05;;;12.35;;
76801;SDS011;66403;50.832;10.950;2023-03-03T05:10:45;29.73;;;11.65;;
76801;SDS011;66403;50.832;10.950;2023-03-03T05:15:49;34.58;;;13.40;;
76801;SDS011;66403;50.832;10.950;2023-03-03T05:20:51;30.95;;;12.02;;
76801;SDS011;66403;50.832;10.950;2023-03-03T05:25:51;24.83;;;9.85;;
76801;SDS011;66403;50.832;10.950;2023-03-03T05:30:52;31.73;;;11.60;;
76801;SDS011;66403;50.832;10.950;2023-03-03T05:35:56;31.63;;;10.23;;
76801;SDS011;66403;50.832;10.950;2023-03-03T05:40:56;27.38;;;10.85;;
76801;SDS011;66403;50.832;10.950;2023-03-03T05:45:57;38.85;;;11.77;;
76801;SDS011;66403;50.832;10.950;2023-03-03T05:50:58;33.83;;;10.65;;
76801;SDS011;66403;50.832;10.950;2023-03-03T05:55:59;27.33;;;11.00;;
76801;SDS011;66403;50.832;10.950;2023-03-03T06:00:59;26.75;;;10.63;;
76801;SDS011;66403;50.832;10.950;2023-03-03T06:06:00;34.47;;;11.80;;
76801;SDS011;66403;50.832;10.950;2023-03-03T06:11:00;27.88;;;11.13;;
76801;SDS011;66403;50.832;10.950;2023-03-03T06:16:02;24.00;;;9.85;;
76801;SDS011;66403;50.832;10.950;2023-03-03T06:21:02;32.65;;;11.15;;
76801;SDS011;66403;50.832;10.950;2023-03-03T06:26:03;27.55;;;9.98;;
76801;SDS011;66403;50.832;10.950;2023-03-03T06:31:03;28.52;;;9.98;;
76801;SDS011;66403;50.832;10.950;2023-03-03T06:36:04;27.08;;;10.20;;
76801;SDS011;66403;50.832;10.950;2023-03-03T06:41:04;23.92;;;9.18;;
76801;SDS011;66403;50.832;10.950;2023-03-03T06:46:06;20.50;;;8.38;;
76801;SDS011;66403;50.832;10.950;2023-03-03T06:51:13;24.20;;;9.55;;
76801;SDS011;66403;50.832;10.950;2023-03-03T06:56:19;29.05;;;10.93;;
76801;SDS011;66403;50.832;10.950;2023-03-03T07:01:19;22.58;;;9.07;;
76801;SDS011;66403;50.832;10.950;2023-03-03T07:06:24;17.20;;;7.85;;
76801;SDS011;66403;50.832;10.950;2023-03-03T07:11:25;28.40;;;9.82;;
76801;SDS011;66403;50.832;10.950;2023-03-03T07:16:26;20.95;;;8.23;;
76801;SDS011;66403;50.832;10.950;2023-03-03T07:21:32;19.42;;;9.27;;
76801;SDS011;66403;50.832;10.950;2023-03-03T07:26:35;21.90;;;7.93;;
76801;SDS011;66403;50.832;10.950;2023-03-03T07:31:37;16.90;;;7.47;;
76801;SDS011;66403;50.832;10.950;2023-03-03T07:36:38;14.38;;;6.75;;
76801;SDS011;66403;50.832;10.950;2023-03-03T07:41:39;20.30;;;8.68;;
76801;SDS011;66403;50.832;10.950;2023-03-03T07:46:41;18.35;;;8.43;;
76801;SDS011;66403;50.832;10.950;2023-03-03T07:51:53;19.98;;;8.80;;
76801;SDS011;66403;50.832;10.950;2023-03-03T08:07:35;17.48;;;6.47;;
76801;SDS011;66403;50.832;10.950;2023-03-03T08:12:36;15.45;;;6.88;;
76801;SDS011;66403;50.832;10.950;2023-03-03T08:17:39;10.82;;;5.18;;
76801;SDS011;66403;50.832;10.950;2023-03-03T08:22:41;14.77;;;6.43;;
76801;SDS011;66403;50.832;10.950;2023-03-03T08:27:42;10.18;;;5.80;;
76801;SDS011;66403;50.832;10.950;2023-03-03T08:32:43;12.77;;;6.60;;
76801;SDS011;66403;50.832;10.950;2023-03-03T08:37:43;12.07;;;5.82;;
76801;SDS011;66403;50.832;10.950;2023-03-03T08:42:44;11.35;;;4.95;;
76801;SDS011;66403;50.832;10.950;2023-03-03T08:47:44;14.27;;;5.45;;
76801;SDS011;66403;50.832;10.950;2023-03-03T08:52:45;16.90;;;6.15;;
76801;SDS011;66403;50.832;10.950;2023-03-03T08:57:45;10.23;;;4.63;;
76801;SDS011;66403;50.832;10.950;2023-03-03T09:02:46;12.02;;;5.35;;
76801;SDS011;66403;50.832;10.950;2023-03-03T09:07:47;12.50;;;4.60;;
76801;SDS011;66403;50.832;10.950;2023-03-03T09:12:48;11.45;;;4.75;;
76801;SDS011;66403;50.832;10.950;2023-03-03T09:17:49;9.30;;;4.80;;
76801;SDS011;66403;50.832;10.950;2023-03-03T09:22:50;11.65;;;5.18;;
76801;SDS011;66403;50.832;10.950;2023-03-03T09:27:51;13.75;;;5.88;;
76801;SDS011;66403;50.832;10.950;2023-03-03T09:32:53;11.05;;;4.78;;
76801;SDS011;66403;50.832;10.950;2023-03-03T09:37:55;14.93;;;6.03;;
76801;SDS011;66403;50.832;10.950;2023-03-03T09:43:03;11.35;;;5.10;;
76801;SDS011;66403;50.832;10.950;2023-03-03T10:04:38;11.02;;;5.10;;
76801;SDS011;66403;50.832;10.950;2023-03-03T10:20:05;6.72;;;2.72;;
76801;SDS011;66403;50.832;10.950;2023-03-03T10:25:25;10.57;;;5.80;;
76801;SDS011;66403;50.832;10.950;2023-03-03T10:30:34;10.95;;;4.22;;
76801;SDS011;66403;50.832;10.950;2023-03-03T10:41:31;7.00;;;4.05;;
76801;SDS011;66403;50.832;10.950;2023-03-03T10:47:16;11.90;;;4.72;;
76801;SDS011;66403;50.832;10.950;2023-03-03T11:03:17;7.22;;;3.67;;
76801;SDS011;66403;50.832;10.950;2023-03-03T11:08:42;11.88;;;4.75;;
76801;SDS011;66403;50.832;10.950;2023-03-03T11:18:56;12.65;;;5.32;;
76801;SDS011;66403;50.832;10.950;2023-03-03T11:24:12;6.57;;;3.35;;
76801;SDS011;66403;50.832;10.950;2023-03-03T11:34:50;7.40;;;3.90;;
76801;SDS011;66403;50.832;10.950;2023-03-03T11:39:56;6.75;;;2.97;;
76801;SDS011;66403;50.832;10.950;2023-03-03T11:45:02;7.53;;;3.42;;
76801;SDS011;66403;50.832;10.950;2023-03-03T11:50:22;8.68;;;3.72;;
76801;SDS011;66403;50.832;10.950;2023-03-03T11:55:26;5.55;;;3.33;;
76801;SDS011;66403;50.832;10.950;2023-03-03T12:11:05;5.93;;;3.58;;
76801;SDS011;66403;50.832;10.950;2023-03-03T12:26:33;7.25;;;4.35;;
76801;SDS011;66403;50.832;10.950;2023-03-03T12:37:05;8.70;;;4.43;;
76801;SDS011;66403;50.832;10.950;2023-03-03T13:03:04;8.07;;;3.90;;
76801;SDS011;66403;50.832;10.950;2023-03-03T13:08:23;7.65;;;4.32;;
76801;SDS011;66403;50.832;10.950;2023-03-03T13:13:33;6.90;;;3.58;;
76801;SDS011;66403;50.832;10.950;2023-03-03T13:18:47;9.77;;;4.53;;
76801;SDS011;66403;50.832;10.950;2023-03-03T13:24:00;10.43;;;4.75;;
76801;SDS011;66403;50.832;10.950;2023-03-03T13:34:36;7.50;;;4.15;;
76801;SDS011;66403;50.832;10.950;2023-03-03T13:39:47;7.28;;;3.88;;
76801;SDS011;66403;50.832;10.950;2023-03-03T13:44:52;11.50;;;4.90;;
76801;SDS011;66403;50.832;10.950;2023-03-03T13:55:06;10.70;;;4.68;;
76801;SDS011;66403;50.832;10.950;2023-03-03T14:05:35;8.40;;;4.05;;
76801;SDS011;66403;50.832;10.950;2023-03-03T14:16:09;8.60;;;4.57;;
76801;SDS011;66403;50.832;10.950;2023-03-03T14:21:18;11.63;;;4.95;;
76801;SDS011;66403;50.832;10.950;2023-03-03T14:26:21;9.43;;;4.35;;
76801;SDS011;66403;50.832;10.950;2023-03-03T14:31:25;8.52;;;3.85;;
76801;SDS011;66403;50.832;10.950;2023-03-03T14:36:31;8.77;;;4.00;;
76801;SDS011;66403;50.832;10.950;2023-03-03T14:41:35;7.45;;;4.28;;
76801;SDS011;66403;50.832;10.950;2023-03-03T14:46:38;8.18;;;4.00;;
76801;SDS011;66403;50.832;10.950;2023-03-03T14:51:42;7.88;;;3.97;;
76801;SDS011;66403;50.832;10.950;2023-03-03T14:57:00;8.75;;;3.92;;
76801;SDS011;66403;50.832;10.950;2023-03-03T15:17:38;6.15;;;3.33;;
76801;SDS011;66403;50.832;10.950;2023-03-03T15:28:30;6.72;;;3.58;;
76801;SDS011;66403;50.832;10.950;2023-03-03T15:44:13;5.70;;;3.33;;
76801;SDS011;66403;50.832;10.950;2023-03-03T15:49:42;14.55;;;6.45;;
76801;SDS011;66403;50.832;10.950;2023-03-03T16:05:22;8.77;;;4.22;;
76801;SDS011;66403;50.832;10.950;2023-03-03T16:21:49;7.18;;;3.78;;
76801;SDS011;66403;50.832;10.950;2023-03-03T16:37:55;9.30;;;4.40;;
76801;SDS011;66403;50.832;10.950;2023-03-03T16:43:04;5.70;;;4.30;;
76801;SDS011;66403;50.832;10.950;2023-03-03T16:48:21;9.43;;;4.65;;
76801;SDS011;66403;50.832;10.950;2023-03-03T16:58:47;11.25;;;4.95;;
76801;SDS011;66403;50.832;10.950;2023-03-03T17:04:01;8.57;;;4.38;;
76801;SDS011;66403;50.832;10.950;2023-03-03T17:09:11;13.88;;;6.68;;
76801;SDS011;66403;50.832;10.950;2023-03-03T17:19:47;10.23;;;4.18;;
76801;SDS011;66403;50.832;10.950;2023-03-03T17:25:20;8.07;;;4.20;;
76801;SDS011;66403;50.832;10.950;2023-03-03T17:41:43;5.80;;;3.33;;
76801;SDS011;66403;50.832;10.950;2023-03-03T17:47:03;8.95;;;3.63;;
76801;SDS011;66403;50.832;10.950;2023-03-03T17:57:42;5.57;;;3.00;;
76801;SDS011;66403;50.832;10.950;2023-03-03T18:14:05;11.20;;;4.30;;
76801;SDS011;66403;50.832;10.950;2023-03-03T18:19:22;11.18;;;3.83;;
76801;SDS011;66403;50.832;10.950;2023-03-03T18:40:33;9.27;;;4.70;;
76801;SDS011;66403;50.832;10.950;2023-03-03T18:51:07;6.90;;;3.60;;
76801;SDS011;66403;50.832;10.950;2023-03-03T18:56:01;7.82;;;3.58;;
76801;SDS011;66403;50.832;10.950;2023-03-03T19:11:39;7.63;;;3.95;;
76801;SDS011;66403;50.832;10.950;2023-03-03T19:16:49;11.02;;;5.30;;
76801;SDS011;66403;50.832;10.950;2023-03-03T19:27:32;8.68;;;4.13;;
76801;SDS011;66403;50.832;10.950;2023-03-03T19:32:54;9.27;;;5.25;;
76801;SDS011;66403;50.832;10.950;2023-03-03T19:43:41;11.18;;;5.75;;
76801;SDS011;66403;50.832;10.950;2023-03-03T19:54:13;11.00;;;5.30;;
76801;SDS011;66403;50.832;10.950;2023-03-03T19:59:40;12.00;;;5.60;;
76801;SDS011;66403;50.832;10.950;2023-03-03T20:15:16;12.98;;;5.72;;
76801;SDS011;66403;50.832;10.950;2023-03-03T20:25:39;10.93;;;5.47;;
76801;SDS011;66403;50.832;10.950;2023-03-03T20:31:05;8.88;;;5.65;;
76801;SDS011;66403;50.832;10.950;2023-03-03T20:41:29;8.75;;;5.15;;
76801;SDS011;66403;50.832;10.950;2023-03-03T20:52:28;11.05;;;6.57;;
76801;SDS011;66403;50.832;10.950;2023-03-03T21:03:09;14.18;;;6.28;;
76801;SDS011;66403;50.832;10.950;2023-03-03T21:08:14;14.70;;;6.50;;
76801;SDS011;66403;50.832;10.950;2023-03-03T21:13:33;13.15;;;6.30;;
76801;SDS011;66403;50.832;10.950;2023-03-03T21:18:36;13.15;;;6.32;;
76801;SDS011;66403;50.832;10.950;2023-03-03T21:23:36;10.63;;;6.70;;
76801;SDS011;66403;50.832;10.950;2023-03-03T21:28:37;14.23;;;5.72;;
76801;SDS011;66403;50.832;10.950;2023-03-03T21:33:56;12.15;;;6.88;;
76801;SDS011;66403;50.832;10.950;2023-03-03T21:38:57;14.25;;;7.10;;
76801;SDS011;66403;50.832;10.950;2023-03-03T21:43:57;16.33;;;6.75;;
76801;SDS011;66403;50.832;10.950;2023-03-03T21:48:57;13.20;;;6.13;;
76801;SDS011;66403;50.832;10.950;2023-03-03T21:53:58;16.50;;;7.03;;
76801;SDS011;66403;50.832;10.950;2023-03-03T21:58:58;11.77;;;5.35;;
76801;SDS011;66403;50.832;10.950;2023-03-03T22:03:59;11.02;;;4.82;;
76801;SDS011;66403;50.832;10.950;2023-03-03T22:08:59;17.58;;;5.97;;
76801;SDS011;66403;50.832;10.950;2023-03-03T22:14:00;14.13;;;5.32;;
76801;SDS011;66403;50.832;10.950;2023-03-03T22:19:00;8.93;;;6.00;;
76801;SDS011;66403;50.832;10.950;2023-03-03T22:24:01;12.05;;;5.78;;
76801;SDS011;66403;50.832;10.950;2023-03-03T22:29:02;11.45;;;6.07;;
76801;SDS011;66403;50.832;10.950;2023-03-03T22:34:03;14.40;;;6.28;;
76801;SDS011;66403;50.832;10.950;2023-03-03T22:39:04;14.82;;;5.45;;
76801;SDS011;66403;50.832;10.950;2023-03-03T22:44:04;10.43;;;5.78;;
76801;SDS011;66403;50.832;10.950;2023-03-03T22:49:05;10.77;;;5.05;;
76801;SDS011;66403;50.832;10.950;2023-03-03T22:54:05;9.07;;;5.78;;
76801;SDS011;66403;50.832;10.950;2023-03-03T22:59:06;13.15;;;5.97;;
76801;SDS011;66403;50.832;10.950;2023-03-03T23:04:06;12.20;;;6.05;;
76801;SDS011;66403;50.832;10.950;2023-03-03T23:09:07;11.05;;;4.95;;
76801;SDS011;66403;50.832;10.950;2023-03-03T23:14:07;15.48;;;7.13;;
76801;SDS011;66403;50.832;10.950;2023-03-03T23:19:07;12.85;;;7.18;;
76801;SDS011;66403;50.832;10.950;2023-03-03T23:24:08;10.65;;;5.40;;
76801;SDS011;66403;50.832;10.950;2023-03-03T23:29:10;11.10;;;6.13;;
76801;SDS011;66403;50.832;10.950;2023-03-03T23:34:10;10.63;;;5.47;;
76801;SDS011;66403;50.832;10.950;2023-03-03T23:39:10;16.67;;;6.38;;
76801;SDS011;66403;50.832;10.950;2023-03-03T23:44:11;13.20;;;6.00;;
76801;SDS011;66403;50.832;10.950;2023-03-03T23:49:12;14.38;;;6.13;;
76801;SDS011;66403;50.832;10.950;2023-03-03T23:54:12;12.63;;;5.43;;
76801;SDS011;66403;50.832;10.950;2023-03-03T23:59:13;14.43;;;5.93;;
